Time;durP1;ratioP1;P1;durP2;ratioP2;P2;SDS_P1;SDS_P2;PMS_P1;PMS_P2;Temp;Humidity;BMP_temperature;BMP_pressure;BME280_temperature;BME280_humidity;BME280_pressure;Samples;Min_cycle;Max_cycle;Signal;HPM_P1;HPM_P2
2023/03/05 00:00:54;;;;;;;60.65;34.65;;;;;;;5.00;85.38;100439.50;4995388;28;20079;-89
2023/03/05 00:03:22;;;;;;;56.47;31.88;;;;;;;5.03;85.19;100447.22;4978302;28;20141;-90
2023/03/05 00:05:51;;;;;;;57.28;30.73;;;;;;;5.03;85.22;100440.09;4960911;28;20051;-89
2023/03/05 00:08:17;;;;;;;56.58;31.27;;;;;;;4.90;85.30;100434.13;4979319;28;20053;-89
2023/03/05 00:10:44;;;;;;;56.28;30.08;;;;;;;4.83;85.75;100427.63;4975811;28;20053;-89
2023/03/05 00:13:11;;;;;;;54.97;29.25;;;;;;;4.78;86.65;100433.34;4960286;28;20061;-88
2023/03/05 00:15:40;;;;;;;50.72;29.08;;;;;;;4.76;87.07;100437.94;4965531;28;20046;-88
2023/03/05 00:18:07;;;;;;;58.20;29.70;;;;;;;4.72;87.74;100436.50;4977389;28;20050;-88
2023/03/05 00:20:33;;;;;;;50.60;28.33;;;;;;;4.65;87.37;100422.00;5004293;28;20185;-89
2023/03/05 00:22:59;;;;;;;56.00;29.92;;;;;;;4.86;87.70;100449.50;4963190;28;20038;-88
2023/03/05 00:25:25;;;;;;;52.80;29.50;;;;;;;4.78;87.00;100416.53;4946124;28;20049;-89
2023/03/05 00:27:52;;;;;;;52.17;28.77;;;;;;;4.84;86.28;100414.16;4973208;28;20046;-88
2023/03/05 00:30:18;;;;;;;51.83;29.27;;;;;;;4.83;86.15;100407.16;4968482;28;20096;-89
2023/03/05 00:32:45;;;;;;;54.80;30.88;;;;;;;5.01;86.30;100426.06;4998432;28;20087;-89
2023/03/05 00:35:11;;;;;;;54.65;29.40;;;;;;;4.91;86.49;100424.31;4993088;28;20423;-88
2023/03/05 00:37:37;;;;;;;51.78;30.38;;;;;;;5.01;86.23;100403.88;4960629;28;20140;-89
2023/03/05 00:40:07;;;;;;;57.70;30.80;;;;;;;5.14;86.17;100420.50;4959387;28;20042;-89
2023/03/05 00:42:37;;;;;;;56.83;30.40;;;;;;;5.33;85.86;100440.25;4976548;28;20128;-90
2023/03/05 00:45:07;;;;;;;51.95;29.65;;;;;;;5.17;85.55;100404.25;4977316;28;20047;-88
2023/03/05 00:47:33;;;;;;;53.75;29.60;;;;;;;5.22;85.58;100409.19;4988851;28;20039;-90
2023/03/05 00:50:01;;;;;;;54.22;29.92;;;;;;;5.37;85.45;100439.84;4959476;28;20054;-89
2023/03/05 00:52:26;;;;;;;53.53;30.20;;;;;;;5.22;84.97;100407.38;4979706;28;20046;-89
2023/03/05 00:54:52;;;;;;;53.33;29.90;;;;;;;5.16;84.73;100393.75;4984457;28;20683;-90
2023/03/05 00:57:18;;;;;;;55.13;30.55;;;;;;;5.13;84.47;100386.00;4985880;28;20522;-89
2023/03/05 00:59:45;;;;;;;;;;;;;;;5.35;84.62;100433.81;4974485;28;20035;-88
2023/03/05 01:02:13;;;;;;;55.42;30.00;;;;;;;5.16;84.23;100402.56;4989243;28;20318;-89
2023/03/05 01:04:38;;;;;;;55.28;31.05;;;;;;;5.11;83.95;100388.81;4975524;28;20383;-89
2023/03/05 01:07:08;;;;;;;58.80;34.10;;;;;;;5.22;84.83;100426.03;4976291;28;20039;-91
2023/03/05 01:09:33;;;;;;;68.80;35.55;;;;;;;5.19;84.79;100428.13;4993336;28;20042;-89
2023/03/05 01:11:59;;;;;;;57.65;32.03;;;;;;;5.12;84.64;100406.47;4993225;28;20097;-88
2023/03/05 01:14:27;;;;;;;53.50;31.27;;;;;;;5.14;84.38;100414.34;4974964;28;20475;-88
2023/03/05 01:17:03;;;;;;;64.22;32.70;;;;;;;5.19;84.38;100423.63;4974165;28;20058;-87
2023/03/05 01:19:28;;;;;;;58.70;32.38;;;;;;;4.75;85.62;100388.31;4960939;28;20110;-88
2023/03/05 01:21:55;;;;;;;60.00;32.17;;;;;;;4.90;85.63;100406.63;4958418;28;20061;-91
2023/03/05 01:24:21;;;;;;;57.35;31.38;;;;;;;4.74;85.07;100391.94;4973444;28;20053;-88
2023/03/05 01:26:48;;;;;;;49.40;29.25;;;;;;;4.81;84.72;100398.44;4958664;28;20471;-88
2023/03/05 01:29:14;;;;;;;56.67;29.58;;;;;;;4.81;84.59;100413.59;4974230;28;20594;-88
2023/03/05 01:31:40;;;;;;;55.67;29.88;;;;;;;4.69;84.68;100420.78;4938425;28;20126;-89
2023/03/05 01:34:09;;;;;;;49.85;28.40;;;;;;;4.56;85.65;100430.78;4976084;28;20521;-88
2023/03/05 01:36:35;;;;;;;49.83;28.48;;;;;;;4.62;85.68;100435.59;4958528;28;20042;-90
2023/03/05 01:39:05;;;;;;;49.53;27.48;;;;;;;4.46;85.26;100408.56;4958811;28;20525;-89
2023/03/05 01:41:32;;;;;;;49.50;27.23;;;;;;;4.52;85.46;100435.53;4963780;28;20062;-90
2023/03/05 01:43:59;;;;;;;51.55;27.15;;;;;;;4.22;86.77;100422.91;4978627;28;20038;-89
2023/03/05 01:46:29;;;;;;;49.42;27.75;;;;;;;4.11;87.73;100420.28;4975293;28;20479;-91
2023/03/05 01:49:09;;;;;;;49.58;27.75;;;;;;;4.00;87.62;100406.06;4980370;28;20187;-90
2023/03/05 01:51:41;;;;;;;52.08;27.88;;;;;;;3.85;88.16;100403.78;4989038;28;20034;-89
2023/03/05 01:54:08;;;;;;;59.25;28.52;;;;;;;3.89;88.27;100429.19;4982287;28;20038;-89
2023/03/05 01:56:34;;;;;;;56.97;29.00;;;;;;;3.71;89.14;100415.53;4972607;28;20065;-90
2023/03/05 01:59:06;;;;;;;60.10;30.67;;;;;;;3.58;90.25;100418.31;4981025;28;20064;-90
2023/03/05 02:01:55;;;;;;;55.03;29.45;;;;;;;3.66;90.51;100409.75;4983505;28;20042;-89
2023/03/05 02:04:22;;;;;;;58.47;29.33;;;;;;;3.82;90.19;100444.78;4975074;28;20046;-89
2023/03/05 02:06:49;;;;;;;56.97;30.88;;;;;;;3.84;90.67;100455.28;4963259;28;20064;-90
2023/03/05 02:09:16;;;;;;;55.58;28.92;;;;;;;3.80;90.13;100434.25;5001716;28;20046;-88
2023/03/05 02:11:48;;;;;;;59.20;30.05;;;;;;;3.92;90.15;100448.38;4963447;28;20050;-89
2023/03/05 02:14:15;;;;;;;54.00;29.20;;;;;;;3.59;90.23;100404.91;4977722;28;20050;-88
2023/03/05 02:16:41;;;;;;;57.15;29.70;;;;;;;3.57;90.56;100412.16;4961906;28;20155;-89
2023/03/05 02:19:11;;;;;;;52.67;28.85;;;;;;;3.64;90.79;100430.28;4973902;28;20132;-89
2023/03/05 02:21:57;;;;;;;61.80;29.27;;;;;;;3.43;91.00;100417.72;4968003;28;20046;-90
2023/03/05 02:24:35;;;;;;;50.30;27.85;;;;;;;3.74;91.13;100450.69;4983477;28;20038;-88
2023/03/05 02:27:03;;;;;;;50.60;26.08;;;;;;;3.86;90.45;100454.19;4959783;28;20061;-90
2023/03/05 02:29:29;;;;;;;49.22;26.75;;;;;;;3.75;90.03;100448.91;4976668;28;20042;-89
2023/03/05 02:31:54;;;;;;;;;;;;;;;3.81;90.03;100461.69;4993903;28;20100;-89
2023/03/05 02:34:22;;;;;;;53.33;26.45;;;;;;;3.66;90.09;100439.00;4991261;28;19926;-87
2023/03/05 02:36:49;;;;;;;51.45;27.13;;;;;;;3.66;89.75;100425.69;4959504;28;20046;-89
2023/03/05 02:39:18;;;;;;;53.75;28.40;;;;;;;3.88;89.94;100462.88;4974707;28;20137;-90
2023/03/05 02:41:44;;;;;;;56.35;28.67;;;;;;;3.72;89.65;100430.50;4985214;28;20053;-89
2023/03/05 02:44:11;;;;;;;54.40;27.90;;;;;;;3.64;89.53;100422.31;4971672;28;20078;-89
2023/03/05 02:46:40;;;;;;;53.38;27.95;;;;;;;3.77;89.90;100444.31;4991068;28;20507;-89
2023/03/05 02:49:10;;;;;;;50.95;28.15;;;;;;;3.87;89.28;100445.25;4968264;28;20158;-89
2023/03/05 02:51:35;;;;;;;;;;;;;;;4.06;88.84;100471.22;4964019;28;20058;-88
2023/03/05 02:54:00;;;;;;;;;;;;;;;3.92;89.41;100471.47;4974497;28;19917;-88
2023/03/05 02:56:26;;;;;;;55.03;26.90;;;;;;;3.63;90.17;100444.53;4973230;28;19914;-91
2023/03/05 02:58:52;;;;;;;53.70;25.83;;;;;;;3.59;89.92;100442.13;4978641;28;20051;-90
2023/03/05 03:01:19;;;;;;;51.93;27.23;;;;;;;3.56;90.46;100447.69;4979318;28;20060;-90
2023/03/05 03:03:46;;;;;;;62.13;28.10;;;;;;;3.68;90.50;100476.94;4978991;28;20278;-92
2023/03/05 03:06:16;;;;;;;55.97;27.27;;;;;;;3.63;89.55;100457.81;4993979;28;20026;-90
2023/03/05 03:08:44;;;;;;;49.53;27.65;;;;;;;3.34;90.16;100437.03;4966756;28;20046;-89
2023/03/05 03:11:12;;;;;;;51.22;29.10;;;;;;;3.45;90.10;100439.72;4993986;28;20045;-89
2023/03/05 03:13:39;;;;;;;52.00;28.23;;;;;;;3.42;90.04;100447.94;4957289;28;20038;-89
2023/03/05 03:16:09;;;;;;;51.58;28.17;;;;;;;3.31;90.35;100445.25;4941627;28;20043;-89
2023/03/05 03:18:34;;;;;;;63.20;29.63;;;;;;;3.30;90.56;100451.53;4972854;28;20034;-89
2023/03/05 03:21:03;;;;;;;60.70;30.30;;;;;;;3.31;90.49;100448.75;4964131;28;20042;-88
2023/03/05 03:23:32;;;;;;;58.42;29.50;;;;;;;3.30;90.64;100440.91;4982453;28;20118;-88
2023/03/05 03:26:04;;;;;;;55.47;29.80;;;;;;;3.30;90.55;100456.84;4957450;28;20050;-90
2023/03/05 03:28:33;;;;;;;57.85;29.60;;;;;;;3.17;90.94;100448.97;4973974;28;20093;-90
2023/03/05 03:31:05;;;;;;;49.63;27.40;;;;;;;3.28;90.75;100464.94;4992219;28;20050;-89
2023/03/05 03:33:31;;;;;;;55.90;27.90;;;;;;;3.22;90.80;100456.59;4971422;28;20471;-89
2023/03/05 03:36:02;;;;;;;55.67;28.13;;;;;;;3.26;90.37;100460.72;4972987;28;20047;-89
2023/03/05 03:38:29;;;;;;;47.45;26.02;;;;;;;3.36;90.15;100467.00;4958380;28;20048;-89
2023/03/05 03:40:56;;;;;;;50.75;26.08;;;;;;;3.15;90.31;100454.41;4955113;28;20471;-90
2023/03/05 03:43:23;;;;;;;53.50;27.15;;;;;;;3.13;90.79;100442.22;4975378;28;20062;-90
2023/03/05 03:45:50;;;;;;;50.13;26.40;;;;;;;3.13;90.41;100436.91;4973348;28;20054;-88
2023/03/05 03:48:16;;;;;;;58.45;26.85;;;;;;;3.05;90.53;100426.88;4934411;29;20047;-89
2023/03/05 03:50:43;;;;;;;50.65;27.00;;;;;;;3.13;90.49;100431.59;4951395;28;20628;-89
2023/03/05 03:53:13;;;;;;;54.78;28.52;;;;;;;3.26;90.98;100466.88;4953956;28;20061;-88
2023/03/05 03:55:41;;;;;;;55.30;29.23;;;;;;;3.03;91.24;100439.41;4939771;28;20571;-88
2023/03/05 03:58:07;;;;;;;49.60;28.23;;;;;;;3.02;91.25;100427.13;4937967;28;20034;-90
2023/03/05 04:00:34;;;;;;;59.35;30.42;;;;;;;3.34;90.97;100466.28;4937718;28;20554;-91
2023/03/05 04:03:01;;;;;;;52.80;27.80;;;;;;;3.25;91.10;100448.38;4953186;28;20039;-89
2023/03/05 04:05:27;;;;;;;54.28;27.63;;;;;;;3.08;90.96;100426.63;4952795;28;20050;-90
2023/03/05 04:07:56;;;;;;;53.38;28.52;;;;;;;3.20;91.10;100447.91;4953853;28;20074;-88
2023/03/05 04:10:22;;;;;;;47.97;27.48;;;;;;;3.33;90.70;100462.78;4940602;28;20065;-90
2023/03/05 04:12:50;;;;;;;49.50;25.73;;;;;;;3.28;90.42;100437.53;4940633;28;20114;-90
2023/03/05 04:15:16;;;;;;;49.03;24.05;;;;;;;3.15;90.75;100424.34;4941040;28;20049;-90
2023/03/05 04:17:42;;;;;;;42.83;22.60;;;;;;;3.20;90.70;100431.97;4955445;28;20039;-90
2023/03/05 04:20:09;;;;;;;43.50;21.60;;;;;;;3.31;90.34;100426.66;4923906;28;20078;-88
2023/03/05 04:22:36;;;;;;;41.55;21.17;;;;;;;3.22;90.46;100419.41;4937938;28;20051;-90
2023/03/05 04:25:05;;;;;;;41.60;20.90;;;;;;;3.68;90.00;100445.03;4955866;28;20448;-90
2023/03/05 04:27:33;;;;;;;43.33;20.65;;;;;;;3.61;89.22;100422.56;4943711;28;20051;-88
2023/03/05 04:30:19;;;;;;;42.15;21.30;;;;;;;3.85;88.58;100452.50;4944098;28;20105;-89
2023/03/05 04:32:49;;;;;;;43.38;21.13;;;;;;;3.71;87.41;100412.88;4972944;28;20042;-89
2023/03/05 04:35:15;;;;;;;39.92;20.88;;;;;;;3.94;88.04;100461.56;4943176;28;20054;-89
2023/03/05 04:37:41;;;;;;;35.97;20.65;;;;;;;3.81;87.69;100414.66;4950385;28;20066;-88
2023/03/05 04:40:08;;;;;;;50.97;20.77;;;;;;;3.77;87.71;100417.72;4954952;28;20477;-89
2023/03/05 04:42:34;;;;;;;39.30;20.48;;;;;;;3.98;87.71;100458.53;4924686;28;20368;-90
2023/03/05 04:44:59;;;;;;;37.10;19.58;;;;;;;3.85;88.02;100441.84;4950119;28;20054;-90
2023/03/05 04:47:27;;;;;;;38.55;19.25;;;;;;;3.88;87.56;100435.44;4956674;28;20154;-90
2023/03/05 04:49:52;;;;;;;32.95;18.02;;;;;;;3.99;86.97;100427.44;4972732;28;20125;-89
2023/03/05 04:52:18;;;;;;;38.45;19.10;;;;;;;4.01;87.15;100437.00;4973704;28;20173;-89
2023/03/05 04:54:45;;;;;;;38.30;19.08;;;;;;;3.95;86.83;100434.81;4979477;28;20836;-88
2023/03/05 04:57:16;;;;;;;33.63;18.08;;;;;;;3.90;87.00;100429.03;4960331;28;20042;-89
2023/03/05 04:59:42;;;;;;;34.30;17.15;;;;;;;4.20;86.39;100440.81;4946466;28;20034;-88
2023/03/05 05:02:09;;;;;;;37.90;19.10;;;;;;;4.09;86.09;100427.53;4982529;28;20066;-91
2023/03/05 05:04:36;;;;;;;37.50;18.65;;;;;;;4.06;86.25;100417.16;4973565;28;20042;-88
2023/03/05 05:07:02;;;;;;;35.38;18.98;;;;;;;4.16;86.34;100424.25;4955814;28;20083;-88
2023/03/05 05:09:28;;;;;;;42.50;20.48;;;;;;;4.49;85.95;100450.88;4973607;28;20122;-90
2023/03/05 05:11:54;;;;;;;48.20;20.65;;;;;;;4.37;86.44;100426.13;4955983;28;20134;-87
2023/03/05 05:14:19;;;;;;;34.93;18.13;;;;;;;4.75;86.07;100457.56;4973025;28;20066;-90
2023/03/05 05:16:48;;;;;;;46.75;19.95;;;;;;;4.76;85.46;100429.94;4959459;28;20466;-89
2023/03/05 05:19:16;;;;;;;37.15;19.25;;;;;;;4.86;84.69;100443.34;4958731;28;20571;-88
2023/03/05 05:21:42;;;;;;;41.67;19.05;;;;;;;4.80;84.55;100422.53;4952225;28;20118;-90
2023/03/05 05:24:08;;;;;;;;;;;;;;;5.07;84.49;100457.50;4983869;28;20074;-90
2023/03/05 05:26:36;;;;;;;37.53;17.55;;;;;;;5.07;83.77;100443.34;4975384;28;19914;-89
2023/03/05 05:29:03;;;;;;;37.65;18.73;;;;;;;5.21;83.76;100451.00;4954362;29;20035;-89
2023/03/05 05:31:29;;;;;;;37.08;18.65;;;;;;;5.28;83.30;100444.16;4975630;28;20085;-89
2023/03/05 05:33:54;;;;;;;43.45;22.25;;;;;;;5.24;83.39;100425.88;4987049;28;20042;-90
2023/03/05 05:36:22;;;;;;;53.03;24.70;;;;;;;5.50;82.71;100448.50;4988918;28;20492;-90
2023/03/05 05:38:49;;;;;;;50.88;26.60;;;;;;;5.27;82.54;100434.47;4977391;28;20049;-88
2023/03/05 05:41:15;;;;;;;48.90;27.80;;;;;;;5.40;82.56;100441.41;4973596;28;20047;-89
2023/03/05 05:43:40;;;;;;;;;;;;;;;5.44;82.78;100472.19;4956224;28;20143;-88
2023/03/05 05:46:08;;;;;;;58.22;29.85;;;;;;;5.35;82.24;100459.63;4975167;28;20343;-88
2023/03/05 05:48:34;;;;;;;54.78;29.30;;;;;;;5.33;82.08;100456.25;4943696;28;20527;-90
2023/03/05 05:51:11;;;;;;;52.70;29.65;;;;;;;5.37;81.73;100458.53;4967574;28;20157;-89
2023/03/05 05:53:41;;;;;;;53.70;27.85;;;;;;;5.40;81.42;100446.75;4946698;28;20042;-90
2023/03/05 05:56:10;;;;;;;57.53;27.73;;;;;;;5.45;81.36;100448.03;4957542;28;20490;-90
2023/03/05 05:58:36;;;;;;;48.58;27.15;;;;;;;5.49;81.62;100446.78;4945068;28;20137;-89
2023/03/05 06:01:10;;;;;;;46.63;25.70;;;;;;;5.79;80.53;100476.28;4958185;28;20042;-88
2023/03/05 06:03:37;;;;;;;50.08;24.92;;;;;;;5.65;80.38;100462.31;4976072;28;20125;-88
2023/03/05 06:06:10;;;;;;;41.97;22.35;;;;;;;5.58;79.90;100461.16;4974581;28;20050;-89
2023/03/05 06:08:37;;;;;;;46.40;22.60;;;;;;;5.70;80.05;100486.75;4975338;28;20081;-89
2023/03/05 06:11:02;;;;;;;44.65;21.85;;;;;;;5.39;80.60;100451.25;4949232;28;20046;-89
2023/03/05 06:13:33;;;;;;;40.22;20.23;;;;;;;5.68;79.44;100463.84;4975936;28;20043;-92
2023/03/05 06:16:04;;;;;;;43.13;21.92;;;;;;;5.74;79.95;100460.66;4963569;28;20030;-90
2023/03/05 06:18:31;;;;;;;36.20;20.08;;;;;;;5.92;78.88;100471.53;4963910;28;20064;-91
2023/03/05 06:20:58;;;;;;;42.67;19.52;;;;;;;5.86;79.34;100462.25;4977075;28;20790;-92
2023/03/05 06:23:25;;;;;;;41.00;19.85;;;;;;;6.01;79.21;100481.41;4964257;28;20079;-90
2023/03/05 06:25:50;;;;;;;38.97;20.25;;;;;;;5.79;79.25;100453.09;4940735;28;20223;-90
2023/03/05 06:28:17;;;;;;;;;;;;;;;5.99;79.24;100491.38;4960225;28;20053;-88
2023/03/05 06:30:44;;;;;;;36.20;17.73;;;;;;;5.87;79.07;100465.75;4992232;28;20382;-90
2023/03/05 06:33:09;;;;;;;34.63;18.08;;;;;;;5.89;78.58;100458.47;4977704;28;20045;-90
2023/03/05 06:35:39;;;;;;;36.17;17.60;;;;;;;6.01;77.73;100478.75;4959495;28;20038;-90
2023/03/05 06:38:07;;;;;;;42.17;18.13;;;;;;;6.11;77.25;100486.78;4938260;28;20158;-90
2023/03/05 06:40:38;;;;;;;40.15;17.50;;;;;;;6.07;77.28;100466.69;4975423;28;20255;-89
2023/03/05 06:43:04;;;;;;;31.25;16.52;;;;;;;6.16;76.55;100460.53;4986063;28;20049;-90
2023/03/05 06:45:29;;;;;;;37.03;17.83;;;;;;;6.22;76.42;100477.81;4958440;28;20491;-90
2023/03/05 06:47:58;;;;;;;;;;;;;;;6.51;76.21;100489.41;4968895;28;20051;-91
2023/03/05 06:50:25;;;;;;;36.45;16.80;;;;;;;6.48;76.01;100473.63;4987791;28;19925;-92
2023/03/05 06:52:50;;;;;;;34.47;17.20;;;;;;;6.48;75.94;100481.66;4952495;28;20051;-89
2023/03/05 06:55:17;;;;;;;32.45;18.42;;;;;;;6.46;75.99;100464.06;4980001;28;20157;-89
2023/03/05 06:57:47;;;;;;;35.45;18.45;;;;;;;6.38;76.13;100456.78;4958147;28;20050;-88
2023/03/05 07:00:16;;;;;;;39.72;19.75;;;;;;;6.49;75.85;100445.13;4968127;28;20047;-89
2023/03/05 07:02:42;;;;;;;46.33;19.95;;;;;;;6.80;75.87;100482.38;4921967;29;20187;-89
2023/03/05 07:05:12;;;;;;;41.10;20.05;;;;;;;6.86;75.20;100461.28;4947311;28;20050;-91
2023/03/05 07:07:42;;;;;;;37.78;19.70;;;;;;;6.93;74.80;100459.75;4963716;28;20039;-91
2023/03/05 07:10:09;;;;;;;43.17;20.25;;;;;;;6.86;74.94;100463.09;4938952;28;20050;-91
2023/03/05 07:12:37;;;;;;;45.55;20.27;;;;;;;6.83;75.01;100458.88;4938433;28;20039;-91
2023/03/05 07:15:07;;;;;;;38.08;21.05;;;;;;;6.91;74.91;100448.34;4973357;28;20042;-90
2023/03/05 07:17:34;;;;;;;41.65;20.90;;;;;;;7.21;74.09;100451.81;4935918;28;20171;-90
2023/03/05 07:19:59;;;;;;;;;;;;;;;7.37;74.41;100468.09;4972051;28;20582;-90
2023/03/05 07:22:25;;;;;;;38.00;18.60;;;;;;;7.16;73.80;100430.88;4956254;28;19918;-91
2023/03/05 07:24:51;;;;;;;46.13;18.42;;;;;;;7.31;73.31;100441.94;4948572;28;20093;-90
2023/03/05 07:27:18;;;;;;;39.90;19.53;;;;;;;7.46;72.89;100428.91;4946883;28;20070;-90
2023/03/05 07:29:45;;;;;;;35.65;19.08;;;;;;;7.76;72.19;100462.59;4953978;28;20290;-91
2023/03/05 07:32:15;;;;;;;50.33;19.63;;;;;;;7.67;72.33;100450.09;4936682;28;20085;-88
2023/03/05 07:34:42;;;;;;;36.70;18.55;;;;;;;7.79;71.68;100440.88;4970946;28;20043;-90
2023/03/05 07:37:13;;;;;;;38.83;18.25;;;;;;;7.68;71.69;100433.09;4935090;29;20038;-90
2023/03/05 07:39:39;;;;;;;38.38;17.95;;;;;;;7.57;71.91;100411.84;4949886;28;20042;-90
2023/03/05 07:42:08;;;;;;;35.10;19.00;;;;;;;7.87;70.76;100416.06;4922628;28;20051;-90
2023/03/05 07:44:33;;;;;;;37.45;17.77;;;;;;;7.76;70.99;100422.47;4924682;29;20093;-91
2023/03/05 07:46:59;;;;;;;38.40;17.83;;;;;;;7.76;71.03;100413.59;4951629;28;20082;-89
2023/03/05 07:49:29;;;;;;;36.88;17.70;;;;;;;7.96;69.79;100401.78;4941487;28;20116;-90
2023/03/05 07:51:58;;;;;;;37.33;18.65;;;;;;;8.43;69.51;100430.28;4973317;28;20047;-89
2023/03/05 07:54:29;;;;;;;47.72;21.33;;;;;;;8.44;69.17;100407.81;4938996;29;20141;-91
2023/03/05 07:56:55;;;;;;;51.45;22.90;;;;;;;8.60;68.94;100407.13;4938358;28;20057;-91
2023/03/05 07:59:20;;;;;;;41.38;22.33;;;;;;;9.06;67.90;100430.13;4940435;28;20042;-89
2023/03/05 08:01:48;;;;;;;38.83;20.63;;;;;;;9.00;67.14;100403.94;4955355;28;20514;-91
2023/03/05 08:04:18;;;;;;;37.75;21.23;;;;;;;9.17;66.95;100414.75;4975937;28;20187;-91
2023/03/05 08:06:46;;;;;;;41.65;21.27;;;;;;;9.65;65.17;100410.69;4956139;28;20078;-90
2023/03/05 08:09:14;;;;;;;44.25;21.92;;;;;;;9.68;65.22;100403.13;4954885;28;20179;-90
2023/03/05 08:11:45;;;;;;;38.78;22.27;;;;;;;9.80;64.03;100408.22;4943026;28;20058;-89
2023/03/05 08:14:11;;;;;;;44.92;22.23;;;;;;;10.07;64.29;100439.38;4942209;28;20404;-89
2023/03/05 08:16:38;;;;;;;46.10;21.83;;;;;;;10.24;64.09;100416.91;4955747;28;20062;-90
2023/03/05 08:19:47;;;;;;;48.22;24.02;;;;;;;10.43;63.19;100415.78;4950504;28;20047;-91
2023/03/05 08:22:24;;;;;;;47.85;24.50;;;;;;;10.76;62.00;100411.28;4945435;28;20128;-90
2023/03/05 08:24:51;;;;;;;46.30;23.27;;;;;;;11.11;60.89;100429.91;4975129;28;20049;-89
2023/03/05 08:27:23;;;;;;;42.17;23.35;;;;;;;11.76;59.38;100427.06;4959340;28;20095;-91
2023/03/05 08:29:52;;;;;;;39.95;23.08;;;;;;;12.22;57.77;100410.19;4941717;28;20061;-91
2023/03/05 08:32:24;;;;;;;38.50;22.23;;;;;;;13.17;53.90;100401.69;4942224;28;20486;-91
2023/03/05 08:34:50;;;;;;;37.90;21.00;;;;;;;14.60;49.37;100388.75;4959044;28;20125;-91
2023/03/05 08:37:17;;;;;;;37.38;21.17;;;;;;;15.05;47.27;100386.63;4956804;28;20035;-90
2023/03/05 08:39:45;;;;;;;33.20;20.75;;;;;;;15.24;45.65;100391.34;4958275;28;20059;-91
2023/03/05 08:42:14;;;;;;;36.83;21.65;;;;;;;15.59;45.01;100394.03;4923502;29;20074;-90
2023/03/05 08:44:49;;;;;;;41.22;22.05;;;;;;;16.48;43.21;100386.88;4953611;28;20094;-91
2023/03/05 08:47:19;;;;;;;36.45;22.15;;;;;;;16.58;42.70;100371.88;4976493;28;20066;-91
2023/03/05 08:49:54;;;;;;;38.60;21.08;;;;;;;18.09;40.12;100362.81;4957962;28;20047;-88
2023/03/05 08:52:24;;;;;;;39.22;19.15;;;;;;;19.86;37.22;100388.97;4976207;28;21693;-90
2023/03/05 08:54:51;;;;;;;33.40;19.45;;;;;;;20.02;35.07;100358.34;4965310;28;20042;-90
2023/03/05 08:57:20;;;;;;;34.90;18.83;;;;;;;19.18;36.31;100355.31;4973220;28;20046;-89
2023/03/05 08:59:46;;;;;;;36.20;19.48;;;;;;;19.16;36.18;100368.31;4973255;28;20091;-90
2023/03/05 09:02:12;;;;;;;33.78;18.98;;;;;;;19.52;35.60;100357.66;4974677;28;20046;-90
2023/03/05 09:04:41;;;;;;;36.35;19.20;;;;;;;20.72;33.12;100353.34;4942064;28;20077;-89
2023/03/05 09:07:07;;;;;;;33.83;18.50;;;;;;;21.02;32.40;100356.81;4973073;28;20480;-88
2023/03/05 09:09:42;;;;;;;31.30;18.10;;;;;;;21.53;30.02;100362.63;4965491;28;20576;-90
2023/03/05 09:12:09;;;;;;;31.95;16.85;;;;;;;21.37;30.16;100349.66;4952615;28;20050;-91
2023/03/05 09:14:35;;;;;;;29.23;16.48;;;;;;;21.28;29.70;100352.78;4975568;28;20039;-90
2023/03/05 09:17:02;;;;;;;23.33;14.55;;;;;;;20.36;30.27;100350.50;4961179;28;20139;-88
2023/03/05 09:19:30;;;;;;;22.20;14.23;;;;;;;20.15;30.43;100338.22;4978210;28;20059;-89
2023/03/05 09:22:26;;;;;;;23.52;14.75;;;;;;;20.53;30.36;100325.25;4984924;28;20074;-89
2023/03/05 09:24:52;;;;;;;24.52;13.70;;;;;;;20.74;29.87;100345.75;4966168;28;20057;-89
2023/03/05 09:27:24;;;;;;;24.45;14.20;;;;;;;19.40;31.47;100363.03;4989485;28;20050;-89
2023/03/05 09:32:52;;;;;;;26.80;14.27;;;;;;;19.98;31.28;100345.38;4995724;28;20046;-89
2023/03/05 09:35:20;;;;;;;26.55;14.18;;;;;;;19.71;31.46;100336.72;4994438;28;20062;-88
2023/03/05 09:37:45;;;;;;;23.48;14.15;;;;;;;19.61;32.22;100351.69;4974684;28;20041;-89
2023/03/05 09:40:18;;;;;;;24.52;13.82;;;;;;;18.79;33.62;100344.78;4967147;28;20130;-88
2023/03/05 09:43:05;;;;;;;28.23;16.58;;;;;;;18.21;35.01;100365.66;4972809;28;20062;-89
2023/03/05 09:45:45;;;;;;;29.08;17.10;;;;;;;17.44;36.22;100319.38;4973235;28;20074;-87
2023/03/05 09:49:02;;;;;;;36.65;18.10;;;;;;;17.43;36.88;100353.00;4929477;29;20047;-89
2023/03/05 09:51:43;;;;;;;33.17;17.73;;;;;;;16.95;38.11;100360.63;4848999;29;20117;-90
2023/03/05 09:54:23;;;;;;;36.83;17.80;;;;;;;16.87;38.32;100348.09;4961433;28;20235;-90
2023/03/05 09:57:00;;;;;;;29.60;16.90;;;;;;;16.93;38.11;100322.81;4937962;29;20069;-90
2023/03/05 09:59:37;;;;;;;28.10;17.52;;;;;;;16.60;38.95;100318.22;4980417;28;20035;-89
2023/03/05 10:02:50;;;;;;;;;;;;;;;;;;;;;
2023/03/05 10:05:23;;;;;;;30.73;17.95;;;;;;;16.43;40.38;100344.06;4954315;28;20134;-89
2023/03/05 10:07:56;;;;;;;35.88;17.95;;;;;;;16.27;39.83;100304.63;4972278;28;20042;-89
2023/03/05 10:10:45;;;;;;;32.08;16.83;;;;;;;16.04;40.02;100324.81;4935181;28;20149;-89
2023/03/05 10:13:36;;;;;;;35.33;18.02;;;;;;;15.71;40.78;100292.22;4974684;28;20043;-89
2023/03/05 10:16:25;;;;;;;32.50;17.88;;;;;;;15.76;40.99;100319.53;4962607;28;20034;-90
2023/03/05 10:19:36;;;;;;;35.63;18.02;;;;;;;15.51;40.81;100277.72;4981677;28;20069;-89
2023/03/05 10:25:53;;;;;;;28.88;16.65;;;;;;;15.47;42.27;100319.78;4924376;28;20039;-89
2023/03/05 10:29:04;;;;;;;33.08;16.23;;;;;;;15.99;41.21;100312.91;4954278;28;20166;-90
2023/03/05 10:31:38;;;;;;;28.02;16.27;;;;;;;16.72;39.98;100312.19;4916186;29;20521;-88
2023/03/05 10:34:33;;;;;;;29.90;16.38;;;;;;;17.02;39.06;100297.13;4902020;29;20058;-90
2023/03/05 10:37:43;;;;;;;26.05;16.45;;;;;;;16.79;39.57;100291.31;4950784;28;20043;-88
2023/03/05 10:40:28;;;;;;;28.95;15.95;;;;;;;16.15;40.07;100293.53;4968671;28;20062;-88
2023/03/05 10:43:12;;;;;;;28.23;16.55;;;;;;;15.59;41.13;100286.50;4977713;28;20038;-89
2023/03/05 10:45:46;;;;;;;30.80;16.60;;;;;;;14.90;42.79;100265.75;4979130;28;20050;-88
2023/03/05 10:48:30;;;;;;;30.45;16.42;;;;;;;14.90;42.71;100271.16;4963576;28;20058;-90
2023/03/05 10:51:35;;;;;;;32.95;16.38;;;;;;;15.03;42.59;100280.38;4956248;28;20566;-88
2023/03/05 10:54:34;;;;;;;31.77;17.38;;;;;;;14.25;44.34;100278.53;4962417;28;20121;-87
2023/03/05 10:57:05;;;;;;;32.47;17.25;;;;;;;14.07;45.07;100281.72;4950812;28;20043;-89
2023/03/05 10:59:34;;;;;;;32.38;16.27;;;;;;;14.02;44.67;100256.28;4973333;28;20041;-89
2023/03/05 11:02:07;;;;;;;32.03;16.50;;;;;;;13.90;45.30;100239.75;4957723;28;20046;-89
2023/03/05 11:04:40;;;;;;;37.20;16.20;;;;;;;14.04;44.59;100255.06;4927378;28;20051;-88
2023/03/05 11:07:30;;;;;;;27.60;14.85;;;;;;;13.86;44.11;100243.84;4941986;28;20046;-89
2023/03/05 11:10:15;;;;;;;36.65;15.27;;;;;;;13.47;44.93;100231.59;4943595;28;20118;-89
2023/03/05 11:12:41;;;;;;;31.80;14.90;;;;;;;13.52;44.73;100235.41;4940482;28;20061;-89
2023/03/05 11:15:13;;;;;;;30.17;14.98;;;;;;;13.71;45.11;100263.66;4959909;28;20050;-89
2023/03/05 11:17:46;;;;;;;28.17;14.90;;;;;;;13.40;45.21;100236.09;4959096;28;20042;-89
2023/03/05 11:20:39;;;;;;;36.55;15.45;;;;;;;13.23;46.01;100262.44;4977013;28;20484;-90
2023/03/05 11:23:22;;;;;;;30.75;15.10;;;;;;;12.59;47.33;100262.97;4977332;28;20105;-90
2023/03/05 11:25:56;;;;;;;30.98;14.43;;;;;;;12.74;46.79;100261.16;4979214;28;20050;-89
2023/03/05 11:28:34;;;;;;;30.63;14.38;;;;;;;12.37;47.13;100246.66;4977495;28;20105;-90
2023/03/05 11:31:30;;;;;;;29.60;14.02;;;;;;;12.58;46.86;100247.81;4961006;28;20041;-89
2023/03/05 11:33:58;;;;;;;29.73;13.88;;;;;;;12.30;47.21;100240.34;4958256;28;20047;-91
2023/03/05 11:36:31;;;;;;;27.33;14.75;;;;;;;11.80;47.53;100233.66;4986671;28;20070;-90
2023/03/05 11:39:04;;;;;;;33.13;14.43;;;;;;;11.60;48.41;100250.25;4973128;28;20066;-89
2023/03/05 11:41:44;;;;;;;29.25;15.13;;;;;;;11.22;49.34;100218.84;4952178;28;20127;-88